Time,TemperatureF,DewpointF,PressureIn,WindDirection,WindDirectionDegrees,WindSpeedMPH,WindSpeedGustMPH,Humidity,HourlyPrecipIn,Conditions,Clouds,dailyrainin,SoftwareType,DateUTC
2013-03-24 00:00:00,27.1,22.6,30.03,NNE,15,0.0,4.0,83,0.00,,,0.00,VWS V14.01,2013-03-24 04:00:00,
2013-03-24 00:05:00,27.0,22.5,30.03,NNE,15,0.0,1.0,83,0.00,,,0.00,VWS V14.01,2013-03-24 04:05:00,
2013-03-24 00:10:00,26.9,22.4,30.04,NNE,15,0.0,0.0,83,0.00,,,0.00,VWS V14.01,2013-03-24 04:10:00,
2013-03-24 00:15:00,26.9,22.4,30.03,NNE,16,0.0,0.0,83,0.00,,,0.00,VWS V14.01,2013-03-24 04:15:00,
2013-03-24 00:20:00,26.7,22.2,30.03,NNE,16,0.0,0.0,83,0.00,,,0.00,VWS V14.01,2013-03-24 04:20:00,
2013-03-24 00:25:00,26.6,22.4,30.04,NNE,27,0.0,2.0,84,0.00,,,0.00,VWS V14.01,2013-03-24 04:25:00,
2013-03-24 00:30:00,26.6,22.4,30.04,NNE,27,0.0,2.0,84,0.00,,,0.00,VWS V14.01,2013-03-24 04:30:00,
2013-03-24 00:35:00,26.5,22.3,30.04,NNE,27,0.0,0.0,84,0.00,,,0.00,VWS V14.01,2013-03-24 04:35:00,
2013-03-24 00:40:00,26.5,22.6,30.04,NNE,25,0.0,2.0,85,0.00,,,0.00,VWS V14.01,2013-03-24 04:40:00,
2013-03-24 00:45:00,26.5,22.6,30.04,NNE,25,0.0,2.0,85,0.00,,,0.00,VWS V14.01,2013-03-24 04:45:00,
2013-03-24 00:50:00,26.4,22.5,30.03,NNE,25,0.0,1.0,85,0.00,,,0.00,VWS V14.01,2013-03-24 04:50:00,
2013-03-24 00:55:00,26.2,22.3,30.03,NNE,25,0.0,0.0,85,0.00,,,0.00,VWS V14.01,2013-03-24 04:55:00,
2013-03-24 01:00:00,26.1,22.2,30.03,NNE,25,0.0,1.0,85,0.00,,,0.00,VWS V14.01,2013-03-24 05:00:00,
2013-03-24 01:05:00,25.9,22.0,30.03,NNE,25,0.0,1.0,85,0.00,,,0.00,VWS V14.01,2013-03-24 05:05:00,
2013-03-24 01:10:00,25.7,21.8,30.03,NNE,25,0.0,0.0,85,0.00,,,0.00,VWS V14.01,2013-03-24 05:10:00,
2013-03-24 01:15:00,25.6,22.0,30.03,ENE,66,0.0,2.0,86,0.00,,,0.00,VWS V14.01,2013-03-24 05:15:00,
2013-03-24 01:20:00,25.5,21.9,30.04,ENE,66,0.0,2.0,86,0.00,,,0.00,VWS V14.01,2013-03-24 05:20:00,
2013-03-24 01:25:00,25.5,21.9,30.04,ENE,66,0.0,2.0,86,0.00,,,0.00,VWS V14.01,2013-03-24 05:25:00,
2013-03-24 01:30:00,25.4,21.8,30.04,ENE,66,0.0,0.0,86,0.00,,,0.00,VWS V14.01,2013-03-24 05:30:00,
2013-03-24 01:35:00,25.3,21.7,30.05,ENE,66,0.0,0.0,86,0.00,,,0.00,VWS V14.01,2013-03-24 05:35:00,
2013-03-24 01:40:00,25.2,21.6,30.04,ENE,66,0.0,0.0,86,0.00,,,0.00,VWS V14.01,2013-03-24 05:40:00,
2013-03-24 01:45:00,25.1,21.8,30.03,ENE,66,0.0,0.0,87,0.00,,,0.00,VWS V14.01,2013-03-24 05:45:00,
2013-03-24 01:50:00,25.0,21.7,30.03,ENE,66,0.0,0.0,87,0.00,,,0.00,VWS V14.01,2013-03-24 05:50:00,
2013-03-24 01:55:00,24.9,21.6,30.03,ENE,66,0.0,0.0,87,0.00,,,0.00,VWS V14.01,2013-03-24 05:55:00,
2013-03-24 02:00:00,24.8,21.5,30.03,ENE,66,0.0,0.0,87,0.00,,,0.00,VWS V14.01,2013-03-24 06:00:00,
2013-03-24 02:05:00,24.7,21.7,30.03,ENE,66,0.0,0.0,88,0.00,,,0.00,VWS V14.01,2013-03-24 06:05:00,
2013-03-24 02:10:00,24.5,21.5,30.03,ENE,66,0.0,0.0,88,0.00,,,0.00,VWS V14.01,2013-03-24 06:10:00,
2013-03-24 02:15:00,24.4,21.4,30.03,ENE,66,0.0,0.0,88,0.00,,,0.00,VWS V14.01,2013-03-24 06:15:00,
2013-03-24 02:20:00,24.3,21.3,30.03,ENE,66,0.0,0.0,88,0.00,,,0.00,VWS V14.01,2013-03-24 06:20:00,
2013-03-24 02:25:00,24.2,21.2,30.02,ENE,66,0.0,0.0,88,0.00,,,0.00,VWS V14.01,2013-03-24 06:25:00,
2013-03-24 02:30:00,24.2,21.2,30.02,ENE,66,0.0,0.0,88,0.00,,,0.00,VWS V14.01,2013-03-24 06:30:00,
2013-03-24 02:35:00,24.0,21.2,30.02,ENE,66,0.0,0.0,89,0.00,,,0.00,VWS V14.01,2013-03-24 06:35:00,
2013-03-24 02:40:00,24.0,21.2,30.01,ENE,66,0.0,0.0,89,0.00,,,0.00,VWS V14.01,2013-03-24 06:40:00,
2013-03-24 02:45:00,24.0,21.2,30.01,ENE,66,0.0,0.0,89,0.00,,,0.00,VWS V14.01,2013-03-24 06:45:00,
2013-03-24 02:50:00,24.0,21.2,30.01,ENE,66,0.0,0.0,89,0.00,,,0.00,VWS V14.01,2013-03-24 06:50:00,
2013-03-24 02:55:00,24.0,21.5,30.01,ENE,66,0.0,0.0,90,0.00,,,0.00,VWS V14.01,2013-03-24 06:55:00,
2013-03-24 03:00:00,24.0,21.5,30.02,ENE,66,0.0,0.0,90,0.00,,,0.00,VWS V14.01,2013-03-24 07:00:00,
2013-03-24 03:05:00,24.2,21.7,30.01,ENE,66,0.0,0.0,90,0.00,,,0.00,VWS V14.01,2013-03-24 07:05:00,
2013-03-24 03:10:00,24.4,22.2,30.01,ENE,66,0.0,0.0,91,0.00,,,0.00,VWS V14.01,2013-03-24 07:10:00,
2013-03-24 03:15:00,24.7,22.5,30.01,ENE,66,0.0,0.0,91,0.00,,,0.00,VWS V14.01,2013-03-24 07:15:00,
2013-03-24 03:19:00,24.9,22.6,30.02,ENE,66,0.0,0.0,91,0.00,,,0.00,VWS V14.01,2013-03-24 07:19:00,
2013-03-24 03:24:00,25.1,22.9,30.02,ENE,66,0.0,0.0,91,0.00,,,0.00,VWS V14.01,2013-03-24 07:24:00,
2013-03-24 03:29:00,25.3,23.0,30.02,ENE,66,0.0,0.0,91,0.00,,,0.00,VWS V14.01,2013-03-24 07:29:00,
2013-03-24 03:34:00,25.5,23.2,30.02,ENE,66,0.0,0.0,91,0.00,,,0.00,VWS V14.01,2013-03-24 07:34:00,
2013-03-24 03:39:00,25.7,23.4,30.01,ENE,66,0.0,0.0,91,0.00,,,0.00,VWS V14.01,2013-03-24 07:39:00,
2013-03-24 03:44:00,25.8,23.5,30.02,ENE,66,0.0,0.0,91,0.00,,,0.00,VWS V14.01,2013-03-24 07:44:00,
2013-03-24 03:49:00,25.9,23.6,30.02,ENE,66,0.0,0.0,91,0.00,,,0.00,VWS V14.01,2013-03-24 07:49:00,
2013-03-24 03:54:00,26.0,23.7,30.02,ENE,66,0.0,0.0,91,0.00,,,0.00,VWS V14.01,2013-03-24 07:54:00,
2013-03-24 03:59:00,26.1,23.8,30.02,ENE,66,0.0,0.0,91,0.00,,,0.00,VWS V14.01,2013-03-24 07:59:00,
2013-03-24 04:04:00,26.2,23.9,30.02,ENE,66,0.0,0.0,91,0.00,,,0.00,VWS V14.01,2013-03-24 08:04:00,
2013-03-24 04:09:00,26.3,24.0,30.01,ENE,66,0.0,0.0,91,0.00,,,0.00,VWS V14.01,2013-03-24 08:09:00,
2013-03-24 04:14:00,26.5,24.2,30.01,ENE,66,0.0,0.0,91,0.00,,,0.00,VWS V14.01,2013-03-24 08:14:00,
2013-03-24 04:19:00,26.7,24.4,30.00,ENE,66,0.0,0.0,91,0.00,,,0.00,VWS V14.01,2013-03-24 08:19:00,
2013-03-24 04:24:00,26.8,24.5,30.00,NE,41,1.0,2.0,91,0.00,,,0.00,VWS V14.01,2013-03-24 08:24:00,
2013-03-24 04:29:00,26.8,24.3,30.00,NE,41,0.0,2.0,90,0.00,,,0.00,VWS V14.01,2013-03-24 08:29:00,
2013-03-24 04:34:00,26.9,24.4,30.00,NE,41,0.0,2.0,90,0.00,,,0.00,VWS V14.01,2013-03-24 08:34:00,
2013-03-24 04:39:00,27.0,24.5,30.00,NE,53,0.0,2.0,90,0.00,,,0.00,VWS V14.01,2013-03-24 08:39:00,
2013-03-24 04:44:00,27.1,24.6,30.00,NNE,24,2.0,3.0,90,0.00,,,0.00,VWS V14.01,2013-03-24 08:44:00,
2013-03-24 04:49:00,27.2,24.7,29.99,NNE,24,0.0,3.0,90,0.00,,,0.00,VWS V14.01,2013-03-24 08:49:00,
2013-03-24 04:54:00,27.4,24.6,30.00,NE,44,0.0,3.0,89,0.00,,,0.00,VWS V14.01,2013-03-24 08:54:00,
2013-03-24 04:59:00,27.6,24.8,30.00,NE,45,0.0,2.0,89,0.00,,,0.00,VWS V14.01,2013-03-24 08:59:00,
2013-03-24 05:04:00,27.8,24.7,29.99,NE,45,1.0,2.0,88,0.00,,,0.00,VWS V14.01,2013-03-24 09:04:00,
2013-03-24 05:09:00,27.9,24.8,29.99,NNE,28,0.0,2.0,88,0.00,,,0.00,VWS V14.01,2013-03-24 09:09:00,
2013-03-24 05:14:00,28.0,24.9,29.99,NNE,28,1.0,2.0,88,0.00,,,0.00,VWS V14.01,2013-03-24 09:14:00,
2013-03-24 05:19:00,28.1,24.7,29.98,NNE,28,0.0,3.0,87,0.00,,,0.00,VWS V14.01,2013-03-24 09:19:00,
2013-03-24 05:24:00,28.2,24.8,29.99,NNE,28,0.0,3.0,87,0.00,,,0.00,VWS V14.01,2013-03-24 09:24:00,
2013-03-24 05:29:00,28.2,24.6,29.99,NE,53,0.0,2.0,86,0.00,,,0.00,VWS V14.01,2013-03-24 09:29:00,
2013-03-24 05:34:00,28.3,24.7,29.98,NE,53,0.0,2.0,86,0.00,,,0.00,VWS V14.01,2013-03-24 09:34:00,
2013-03-24 05:39:00,28.3,24.7,29.98,NE,53,0.0,2.0,86,0.00,,,0.00,VWS V14.01,2013-03-24 09:39:00,
2013-03-24 05:44:00,28.2,24.3,29.98,NE,53,0.0,0.0,85,0.00,,,0.00,VWS V14.01,2013-03-24 09:44:00,
2013-03-24 05:49:00,28.2,24.3,29.97,NE,53,0.0,2.0,85,0.00,,,0.00,VWS V14.01,2013-03-24 09:49:00,
2013-03-24 05:54:00,28.1,24.5,29.97,NE,53,0.0,2.0,86,0.00,,,0.00,VWS V14.01,2013-03-24 09:54:00,
2013-03-24 05:59:00,28.1,24.5,29.97,NE,53,0.0,0.0,86,0.00,,,0.00,VWS V14.01,2013-03-24 09:59:00,
2013-03-24 06:04:00,28.2,24.6,29.97,NE,53,0.0,0.0,86,0.00,,,0.00,VWS V14.01,2013-03-24 10:04:00,
2013-03-24 06:09:00,28.1,24.5,29.97,NE,53,0.0,0.0,86,0.00,,,0.00,VWS V14.01,2013-03-24 10:09:00,
2013-03-24 06:14:00,28.1,24.5,29.97,NE,53,0.0,0.0,86,0.00,,,0.00,VWS V14.01,2013-03-24 10:14:00,
2013-03-24 06:19:00,28.2,24.6,29.96,NE,53,0.0,1.0,86,0.00,,,0.00,VWS V14.01,2013-03-24 10:19:00,
2013-03-24 06:24:00,28.2,24.6,29.96,NE,53,0.0,1.0,86,0.00,,,0.00,VWS V14.01,2013-03-24 10:24:00,
2013-03-24 06:29:00,28.3,24.7,29.96,NE,53,0.0,1.0,86,0.00,,,0.00,VWS V14.01,2013-03-24 10:29:00,
2013-03-24 06:34:00,28.4,24.8,29.95,NE,55,0.0,2.0,86,0.00,,,0.00,VWS V14.01,2013-03-24 10:34:00,
2013-03-24 06:39:00,28.5,24.9,29.95,ENE,59,0.0,2.0,86,0.00,,,0.00,VWS V14.01,2013-03-24 10:39:00,
2013-03-24 06:44:00,28.7,24.8,29.95,ENE,71,0.0,2.0,85,0.00,,,0.00,VWS V14.01,2013-03-24 10:44:00,
2013-03-24 06:49:00,28.7,24.8,29.95,ENE,71,0.0,2.0,85,0.00,,,0.00,VWS V14.01,2013-03-24 10:49:00,
2013-03-24 06:54:00,28.8,24.9,29.95,ENE,78,0.0,2.0,85,0.00,,,0.00,VWS V14.01,2013-03-24 10:54:00,
2013-03-24 06:59:00,28.9,25.0,29.95,ENE,78,0.0,2.0,85,0.00,,,0.00,VWS V14.01,2013-03-24 10:59:00,
2013-03-24 07:04:00,28.9,25.0,29.95,East,86,0.0,2.0,85,0.00,,,0.00,VWS V14.01,2013-03-24 11:04:00,
2013-03-24 07:09:00,29.0,25.1,29.94,ENE,67,0.0,2.0,85,0.00,,,0.00,VWS V14.01,2013-03-24 11:09:00,
2013-03-24 07:14:00,29.0,25.1,29.94,ENE,67,0.0,2.0,85,0.00,,,0.00,VWS V14.01,2013-03-24 11:14:00,
2013-03-24 07:19:00,29.1,25.2,29.94,ENE,67,0.0,2.0,85,0.00,,,0.00,VWS V14.01,2013-03-24 11:19:00,
2013-03-24 07:24:00,29.1,25.2,29.93,ENE,67,0.0,2.0,85,0.00,,,0.00,VWS V14.01,2013-03-24 11:24:00,
2013-03-24 07:29:00,29.2,25.0,29.93,ENE,67,0.0,0.0,84,0.00,,,0.00,VWS V14.01,2013-03-24 11:29:00,
2013-03-24 07:34:00,29.2,25.0,29.93,ENE,67,0.0,1.0,84,0.00,,,0.00,VWS V14.01,2013-03-24 11:34:00,
2013-03-24 07:39:00,29.2,25.0,29.94,ENE,67,0.0,1.0,84,0.00,,,0.00,VWS V14.01,2013-03-24 11:39:00,
2013-03-24 07:44:00,29.2,25.0,29.93,ENE,67,0.0,1.0,84,0.00,,,0.00,VWS V14.01,2013-03-24 11:44:00,
2013-03-24 07:49:00,29.2,25.3,29.93,ENE,67,0.0,0.0,85,0.00,,,0.00,VWS V14.01,2013-03-24 11:49:00,
2013-03-24 07:54:00,29.2,25.3,29.93,ENE,67,0.0,0.0,85,0.00,,,0.00,VWS V14.01,2013-03-24 11:54:00,
2013-03-24 07:59:00,29.2,25.3,29.93,ENE,67,0.0,0.0,85,0.00,,,0.00,VWS V14.01,2013-03-24 11:59:00,
2013-03-24 08:04:00,29.2,25.3,29.93,ENE,67,0.0,0.0,85,0.00,,,0.00,VWS V14.01,2013-03-24 12:04:00,
2013-03-24 08:09:00,29.2,25.3,29.93,ENE,67,0.0,0.0,85,0.00,,,0.00,VWS V14.01,2013-03-24 12:09:00,
2013-03-24 08:14:00,29.2,25.3,29.93,ENE,67,0.0,0.0,85,0.00,,,0.00,VWS V14.01,2013-03-24 12:14:00,
2013-03-24 08:19:00,29.3,25.4,29.92,ENE,67,0.0,1.0,85,0.00,,,0.00,VWS V14.01,2013-03-24 12:19:00,
2013-03-24 08:24:00,29.3,25.4,29.92,ENE,67,0.0,1.0,85,0.00,,,0.00,VWS V14.01,2013-03-24 12:24:00,
2013-03-24 08:29:00,29.4,25.5,29.92,NNE,18,0.0,1.0,85,0.00,,,0.00,VWS V14.01,2013-03-24 12:29:00,
2013-03-24 08:34:00,29.4,25.5,29.93,NNE,18,0.0,1.0,85,0.00,,,0.00,VWS V14.01,2013-03-24 12:34:00,
2013-03-24 08:39:00,29.4,25.5,29.93,NNE,18,0.0,1.0,85,0.00,,,0.00,VWS V14.01,2013-03-24 12:39:00,
2013-03-24 08:44:00,29.5,25.6,29.93,NNE,18,0.0,0.0,85,0.00,,,0.00,VWS V14.01,2013-03-24 12:44:00,
2013-03-24 08:49:00,29.5,25.6,29.93,NNE,18,0.0,0.0,85,0.00,,,0.00,VWS V14.01,2013-03-24 12:49:00,
2013-03-24 08:54:00,29.6,25.6,29.92,NNE,18,0.0,0.0,85,0.00,,,0.00,VWS V14.01,2013-03-24 12:54:00,
2013-03-24 08:59:00,29.6,25.6,29.92,NNE,18,0.0,1.0,85,0.00,,,0.00,VWS V14.01,2013-03-24 12:59:00,
2013-03-24 09:04:00,29.7,25.8,29.92,NNE,18,1.0,1.0,85,0.00,,,0.00,VWS V14.01,2013-03-24 13:04:00,
2013-03-24 09:09:00,29.8,25.9,29.92,NE,46,1.0,2.0,85,0.00,,,0.00,VWS V14.01,2013-03-24 13:09:00,
2013-03-24 09:14:00,29.9,25.7,29.92,NE,48,0.0,2.0,84,0.00,,,0.00,VWS V14.01,2013-03-24 13:14:00,
2013-03-24 09:19:00,30.1,25.9,29.92,NE,49,1.0,3.0,84,0.00,,,0.00,VWS V14.01,2013-03-24 13:19:00,
2013-03-24 09:24:00,30.3,26.1,29.91,NNE,21,0.0,3.0,84,0.00,,,0.00,VWS V14.01,2013-03-24 13:24:00,
2013-03-24 09:29:00,30.4,25.9,29.91,ENE,65,3.0,3.0,83,0.00,,,0.00,VWS V14.01,2013-03-24 13:29:00,
2013-03-24 09:34:00,30.6,25.8,29.90,NNW,338,1.0,3.0,82,0.00,,,0.00,VWS V14.01,2013-03-24 13:34:00,
2013-03-24 09:39:00,30.7,25.9,29.90,NNE,29,0.0,4.0,82,0.00,,,0.00,VWS V14.01,2013-03-24 13:39:00,
2013-03-24 09:44:00,30.9,25.8,29.90,NNE,33,3.0,4.0,81,0.00,,,0.00,VWS V14.01,2013-03-24 13:44:00,
2013-03-24 09:49:00,31.0,25.9,29.89,NE,55,1.0,8.0,81,0.00,,,0.00,VWS V14.01,2013-03-24 13:49:00,
2013-03-24 09:54:00,31.1,26.0,29.89,NE,46,0.0,8.0,81,0.00,,,0.00,VWS V14.01,2013-03-24 13:54:00,
2013-03-24 09:59:00,31.2,25.8,29.88,East,81,3.0,8.0,80,0.00,,,0.00,VWS V14.01,2013-03-24 13:59:00,
2013-03-24 10:04:00,31.4,26.0,29.88,NNE,33,0.0,5.0,80,0.00,,,0.00,VWS V14.01,2013-03-24 14:04:00,
2013-03-24 10:09:00,31.4,25.6,29.88,ENE,68,2.0,7.0,79,0.00,,,0.00,VWS V14.01,2013-03-24 14:09:00,
2013-03-24 10:14:00,31.5,25.8,29.88,NNE,32,2.0,7.0,79,0.00,,,0.00,VWS V14.01,2013-03-24 14:14:00,
2013-03-24 10:19:00,31.6,25.9,29.88,ENE,61,1.0,7.0,79,0.00,,,0.00,VWS V14.01,2013-03-24 14:19:00,
2013-03-24 10:24:00,31.7,25.9,29.88,NE,44,1.0,7.0,79,0.00,,,0.00,VWS V14.01,2013-03-24 14:24:00,
2013-03-24 10:29:00,31.9,26.1,29.88,ENE,62,1.0,7.0,79,0.00,,,0.00,VWS V14.01,2013-03-24 14:29:00,
2013-03-24 10:34:00,31.9,26.1,29.89,NNE,27,2.0,7.0,79,0.00,,,0.00,VWS V14.01,2013-03-24 14:34:00,
2013-03-24 10:39:00,31.9,25.8,29.89,NNE,25,3.0,7.0,78,0.00,,,0.00,VWS V14.01,2013-03-24 14:39:00,
2013-03-24 10:44:00,31.9,25.8,29.89,ESE,122,1.0,6.0,78,0.00,,,0.00,VWS V14.01,2013-03-24 14:44:00,
2013-03-24 10:49:00,32.0,25.9,29.88,NE,37,2.0,5.0,78,0.00,,,0.00,VWS V14.01,2013-03-24 14:49:00,
2013-03-24 10:55:00,32.2,26.4,29.87,NNE,28,5.0,5.0,79,0.00,,,0.00,VWS V14.01,2013-03-24 14:55:00,
2013-03-24 11:00:00,32.3,26.2,29.86,NNE,21,4.0,7.0,78,0.00,,,0.00,VWS V14.01,2013-03-24 15:00:00,
2013-03-24 11:05:00,32.3,26.2,29.85,NE,40,2.0,9.0,78,0.00,,,0.00,VWS V14.01,2013-03-24 15:05:00,
2013-03-24 11:25:00,33.1,27.0,29.84,NNE,22,3.0,5.0,78,0.00,,,0.00,VWS V14.01,2013-03-24 15:25:00,
2013-03-24 11:30:00,33.8,27.0,29.83,NE,55,5.0,8.0,76,0.00,,,0.00,VWS V14.01,2013-03-24 15:30:00,
2013-03-24 11:35:00,33.8,26.7,29.83,NE,43,0.0,8.0,75,0.00,,,0.00,VWS V14.01,2013-03-24 15:35:00,
2013-03-24 11:40:00,33.8,26.7,29.83,ENE,63,5.0,8.0,75,0.00,,,0.00,VWS V14.01,2013-03-24 15:40:00,
2013-03-24 11:45:00,33.8,26.7,29.82,NE,52,0.0,9.0,75,0.00,,,0.00,VWS V14.01,2013-03-24 15:45:00,
2013-03-24 11:50:00,34.8,27.7,29.82,NE,42,2.0,9.0,75,0.00,,,0.00,VWS V14.01,2013-03-24 15:50:00,
2013-03-24 11:55:00,35.7,27.9,29.81,NE,37,1.0,7.0,73,0.00,,,0.00,VWS V14.01,2013-03-24 15:55:00,
2013-03-24 12:00:00,35.9,28.1,29.81,ENE,64,2.0,7.0,73,0.00,,,0.00,VWS V14.01,2013-03-24 16:00:00,
2013-03-24 12:05:00,36.1,27.3,29.80,NE,42,6.0,10.0,70,0.00,,,0.00,VWS V14.01,2013-03-24 16:05:00,
2013-03-24 12:10:00,35.9,26.7,29.80,NE,49,5.0,10.0,69,0.00,,,0.00,VWS V14.01,2013-03-24 16:10:00,
2013-03-24 12:15:00,35.6,26.8,29.80,NE,56,4.0,7.0,70,0.00,,,0.00,VWS V14.01,2013-03-24 16:15:00,
2013-03-24 12:20:00,35.4,26.6,29.80,ENE,62,1.0,7.0,70,0.00,,,0.00,VWS V14.01,2013-03-24 16:20:00,
2013-03-24 12:25:00,35.8,27.0,29.81,NNE,28,5.0,8.0,70,0.00,,,0.00,VWS V14.01,2013-03-24 16:25:00,
2013-03-24 12:30:00,35.7,26.5,29.81,NNW,346,3.0,8.0,69,0.00,,,0.00,VWS V14.01,2013-03-24 16:30:00,
2013-03-24 12:35:00,35.4,26.6,29.81,NE,51,0.0,8.0,70,0.00,,,0.00,VWS V14.01,2013-03-24 16:35:00,
2013-03-24 12:40:00,35.1,26.3,29.81,North,5,1.0,7.0,70,0.00,,,0.00,VWS V14.01,2013-03-24 16:40:00,
2013-03-24 12:45:00,35.0,26.2,29.80,NNE,30,3.0,7.0,70,0.00,,,0.00,VWS V14.01,2013-03-24 16:45:00,
2013-03-24 12:50:00,34.9,26.1,29.81,ENE,67,0.0,7.0,70,0.00,,,0.00,VWS V14.01,2013-03-24 16:50:00,
2013-03-24 12:55:00,34.8,26.0,29.81,NE,37,3.0,10.0,70,0.00,,,0.00,VWS V14.01,2013-03-24 16:55:00,
2013-03-24 13:00:00,34.8,26.0,29.80,NNE,15,1.0,10.0,70,0.00,,,0.00,VWS V14.01,2013-03-24 17:00:00,
2013-03-24 13:05:00,34.8,26.0,29.80,NE,37,3.0,7.0,70,0.00,,,0.00,VWS V14.01,2013-03-24 17:05:00,
2013-03-24 13:10:00,34.7,25.9,29.80,NNE,33,2.0,7.0,70,0.00,,,0.00,VWS V14.01,2013-03-24 17:10:00,
2013-03-24 13:15:00,34.8,26.4,29.80,NE,53,2.0,6.0,71,0.00,,,0.00,VWS V14.01,2013-03-24 17:15:00,
2013-03-24 13:20:00,35.0,26.2,29.79,East,98,5.0,7.0,70,0.00,,,0.00,VWS V14.01,2013-03-24 17:20:00,
2013-03-24 13:25:00,35.1,26.3,29.79,East,84,5.0,7.0,70,0.00,,,0.00,VWS V14.01,2013-03-24 17:25:00,
2013-03-24 13:30:00,35.4,26.3,29.78,East,82,2.0,8.0,69,0.00,,,0.00,VWS V14.01,2013-03-24 17:30:00,
2013-03-24 13:35:00,35.6,26.5,29.78,SSE,151,4.0,9.0,69,0.00,,,0.00,VWS V14.01,2013-03-24 17:35:00,
2013-03-24 13:40:00,35.9,26.0,29.78,East,80,3.0,10.0,67,0.00,,,0.00,VWS V14.01,2013-03-24 17:40:00,
2013-03-24 13:45:00,36.0,25.8,29.77,ENE,75,0.0,12.0,66,0.00,,,0.00,VWS V14.01,2013-03-24 17:45:00,
2013-03-24 13:50:00,36.1,25.9,29.77,ENE,58,2.0,12.0,66,0.00,,,0.00,VWS V14.01,2013-03-24 17:50:00,
2013-03-24 13:55:00,36.2,26.0,29.77,NNE,30,5.0,12.0,66,0.00,,,0.00,VWS V14.01,2013-03-24 17:55:00,
2013-03-24 14:00:00,36.5,26.2,29.77,NNE,17,3.0,8.0,66,0.00,,,0.00,VWS V14.01,2013-03-24 18:00:00,
2013-03-24 14:05:00,36.8,25.8,29.77,NE,47,3.0,15.0,64,0.00,,,0.00,VWS V14.01,2013-03-24 18:05:00,
2013-03-24 14:10:00,36.8,25.4,29.76,NNE,31,3.0,15.0,63,0.00,,,0.00,VWS V14.01,2013-03-24 18:10:00,
2013-03-24 14:15:00,36.8,25.4,29.76,NE,42,0.0,15.0,63,0.00,,,0.00,VWS V14.01,2013-03-24 18:15:00,
2013-03-24 14:20:00,36.7,25.3,29.75,ENE,63,8.0,10.0,63,0.00,,,0.00,VWS V14.01,2013-03-24 18:20:00,
2013-03-24 14:25:00,36.6,24.8,29.75,NE,56,4.0,11.0,62,0.00,,,0.00,VWS V14.01,2013-03-24 18:25:00,
2013-03-24 14:30:00,36.5,25.1,29.74,ESE,120,2.0,11.0,63,0.00,,,0.00,VWS V14.01,2013-03-24 18:30:00,
2013-03-24 14:35:00,36.6,24.8,29.75,NE,36,3.0,12.0,62,0.00,,,0.00,VWS V14.01,2013-03-24 18:35:00,
2013-03-24 14:40:00,36.6,25.2,29.74,East,82,3.0,12.0,63,0.00,,,0.00,VWS V14.01,2013-03-24 18:40:00,
2013-03-24 14:45:00,36.7,25.3,29.73,North,5,5.0,12.0,63,0.00,,,0.00,VWS V14.01,2013-03-24 18:45:00,
2013-03-24 14:50:00,37.0,25.2,29.73,ENE,65,5.0,9.0,62,0.00,,,0.00,VWS V14.01,2013-03-24 18:50:00,
2013-03-24 14:55:00,37.0,25.2,29.72,NE,49,2.0,9.0,62,0.00,,,0.00,VWS V14.01,2013-03-24 18:55:00,
2013-03-24 15:00:00,37.0,25.2,29.72,NE,48,4.0,9.0,62,0.00,,,0.00,VWS V14.01,2013-03-24 19:00:00,
2013-03-24 15:05:00,37.0,25.2,29.72,NNE,19,3.0,9.0,62,0.00,,,0.00,VWS V14.01,2013-03-24 19:05:00,
2013-03-24 15:10:00,37.1,25.3,29.71,NE,34,2.0,9.0,62,0.00,,,0.00,VWS V14.01,2013-03-24 19:10:00,
2013-03-24 15:15:00,37.1,25.3,29.71,NE,55,4.0,9.0,62,0.00,,,0.00,VWS V14.01,2013-03-24 19:15:00,
2013-03-24 15:20:00,37.2,25.8,29.71,North,5,2.0,8.0,63,0.00,,,0.00,VWS V14.01,2013-03-24 19:20:00,
2013-03-24 15:25:00,37.4,26.0,29.71,ENE,61,3.0,8.0,63,0.00,,,0.00,VWS V14.01,2013-03-24 19:25:00,
2013-03-24 15:30:00,37.5,25.3,29.70,NE,51,2.0,9.0,61,0.00,,,0.00,VWS V14.01,2013-03-24 19:30:00,
2013-03-24 15:35:00,37.6,25.4,29.69,NW,324,2.0,9.0,61,0.00,,,0.00,VWS V14.01,2013-03-24 19:35:00,
2013-03-24 15:40:00,37.6,25.0,29.69,ENE,66,9.0,9.0,60,0.00,,,0.00,VWS V14.01,2013-03-24 19:40:00,
2013-03-24 15:45:00,37.5,25.3,29.69,NE,44,2.0,9.0,61,0.00,,,0.00,VWS V14.01,2013-03-24 19:45:00,
2013-03-24 15:50:00,37.5,25.3,29.68,NNE,18,2.0,10.0,61,0.00,,,0.00,VWS V14.01,2013-03-24 19:50:00,
2013-03-24 15:55:00,37.4,25.2,29.68,North,10,5.0,10.0,61,0.00,,,0.00,VWS V14.01,2013-03-24 19:55:00,
2013-03-24 16:00:00,37.5,26.1,29.68,ENE,61,5.0,10.0,63,0.00,,,0.00,VWS V14.01,2013-03-24 20:00:00,
2013-03-24 16:05:00,37.6,25.8,29.67,NNE,29,5.0,10.0,62,0.00,,,0.00,VWS V14.01,2013-03-24 20:05:00,
2013-03-24 16:10:00,37.7,26.3,29.66,NNE,23,9.0,9.0,63,0.00,,,0.00,VWS V14.01,2013-03-24 20:10:00,
2013-03-24 16:15:00,37.6,26.2,29.66,NE,43,4.0,11.0,63,0.00,,,0.00,VWS V14.01,2013-03-24 20:15:00,
2013-03-24 16:20:00,37.6,26.2,29.66,NNE,21,6.0,11.0,63,0.00,,,0.00,VWS V14.01,2013-03-24 20:20:00,
2013-03-24 16:25:00,37.6,26.5,29.65,SE,129,5.0,11.0,64,0.00,,,0.00,VWS V14.01,2013-03-24 20:25:00,
2013-03-24 16:30:00,37.7,26.6,29.65,NE,42,6.0,10.0,64,0.00,,,0.00,VWS V14.01,2013-03-24 20:30:00,
2013-03-24 16:35:00,37.7,26.6,29.65,ENE,68,2.0,8.0,64,0.00,,,0.00,VWS V14.01,2013-03-24 20:35:00,
2013-03-24 16:40:00,37.6,26.9,29.65,NNE,25,4.0,8.0,65,0.00,,,0.00,VWS V14.01,2013-03-24 20:40:00,
2013-03-24 16:45:00,37.5,26.8,29.65,NE,41,1.0,8.0,65,0.00,,,0.00,VWS V14.01,2013-03-24 20:45:00,
2013-03-24 16:50:00,37.5,27.2,29.64,NE,38,2.0,8.0,66,0.00,,,0.00,VWS V14.01,2013-03-24 20:50:00,
2013-03-24 16:55:00,37.4,27.1,29.64,North,5,2.0,12.0,66,0.00,,,0.00,VWS V14.01,2013-03-24 20:55:00,
2013-03-24 17:00:00,37.4,27.1,29.64,East,80,6.0,12.0,66,0.00,,,0.00,VWS V14.01,2013-03-24 21:00:00,
2013-03-24 17:05:00,37.4,26.7,29.64,NNE,24,2.0,13.0,65,0.00,,,0.00,VWS V14.01,2013-03-24 21:05:00,
2013-03-24 17:10:00,37.4,26.7,29.64,NE,42,3.0,13.0,65,0.00,,,0.00,VWS V14.01,2013-03-24 21:10:00,
2013-03-24 17:15:00,37.5,27.2,29.64,NNE,13,3.0,13.0,66,0.00,,,0.00,VWS V14.01,2013-03-24 21:15:00,
2013-03-24 17:20:00,37.4,27.1,29.63,North,5,1.0,13.0,66,0.00,,,0.00,VWS V14.01,2013-03-24 21:20:00,
2013-03-24 17:25:00,37.4,27.1,29.63,North,11,4.0,13.0,66,0.00,,,0.00,VWS V14.01,2013-03-24 21:25:00,
2013-03-24 17:30:00,37.4,27.1,29.62,ENE,74,10.0,10.0,66,0.00,,,0.00,VWS V14.01,2013-03-24 21:30:00,
2013-03-24 17:35:00,37.1,26.8,29.62,NE,55,8.0,10.0,66,0.00,,,0.00,VWS V14.01,2013-03-24 21:35:00,
2013-03-24 17:40:00,36.9,26.6,29.63,NNE,32,3.0,10.0,66,0.00,,,0.00,VWS V14.01,2013-03-24 21:40:00,
2013-03-24 17:45:00,36.9,27.0,29.63,NNE,32,3.0,10.0,67,0.00,,,0.00,VWS V14.01,2013-03-24 21:45:00,
2013-03-24 17:50:00,36.8,26.9,29.63,ENE,58,3.0,9.0,67,0.00,,,0.00,VWS V14.01,2013-03-24 21:50:00,
2013-03-24 17:55:00,36.7,27.1,29.63,NNE,16,4.0,9.0,68,0.00,,,0.00,VWS V14.01,2013-03-24 21:55:00,
2013-03-24 17:59:00,36.6,27.0,29.64,NE,38,1.0,8.0,68,0.00,,,0.00,VWS V14.01,2013-03-24 21:59:00,
2013-03-24 18:04:00,36.5,27.0,29.63,NNE,27,3.0,9.0,68,0.00,,,0.00,VWS V14.01,2013-03-24 22:04:00,
2013-03-24 18:09:00,36.4,26.9,29.64,NE,51,2.0,9.0,68,0.00,,,0.00,VWS V14.01,2013-03-24 22:09:00,
2013-03-24 18:14:00,36.3,26.8,29.64,North,360,3.0,9.0,68,0.00,,,0.00,VWS V14.01,2013-03-24 22:14:00,
2013-03-24 18:19:00,36.2,26.7,29.63,ENE,74,3.0,8.0,68,0.00,,,0.00,VWS V14.01,2013-03-24 22:19:00,
2013-03-24 18:24:00,36.2,27.0,29.63,NE,45,2.0,8.0,69,0.00,,,0.00,VWS V14.01,2013-03-24 22:24:00,
2013-03-24 18:29:00,36.1,26.9,29.63,ENE,61,4.0,8.0,69,0.00,,,0.00,VWS V14.01,2013-03-24 22:29:00,
2013-03-24 18:34:00,36.1,26.9,29.63,NE,39,4.0,7.0,69,0.00,,,0.00,VWS V14.01,2013-03-24 22:34:00,
2013-03-24 18:39:00,36.0,26.8,29.62,North,5,4.0,9.0,69,0.00,,,0.00,VWS V14.01,2013-03-24 22:39:00,
2013-03-24 18:44:00,35.9,27.1,29.63,NE,38,5.0,9.0,70,0.00,,,0.00,VWS V14.01,2013-03-24 22:44:00,
2013-03-24 18:49:00,35.8,27.0,29.63,NNE,28,4.0,9.0,70,0.00,,,0.00,VWS V14.01,2013-03-24 22:49:00,
2013-03-24 18:54:00,35.8,27.0,29.63,ENE,74,7.0,12.0,70,0.00,,,0.00,VWS V14.01,2013-03-24 22:54:00,
2013-03-24 18:59:00,35.7,26.9,29.64,NE,46,1.0,12.0,70,0.00,,,0.00,VWS V14.01,2013-03-24 22:59:00,
2013-03-24 19:04:00,35.7,26.9,29.64,NE,55,0.0,12.0,70,0.00,,,0.00,VWS V14.01,2013-03-24 23:04:00,
2013-03-24 19:09:00,35.7,26.9,29.64,North,5,5.0,7.0,70,0.00,,,0.00,VWS V14.01,2013-03-24 23:09:00,
2013-03-24 19:14:00,35.7,26.9,29.65,NNW,327,5.0,7.0,70,0.00,,,0.00,VWS V14.01,2013-03-24 23:14:00,
2013-03-24 19:19:00,35.6,27.1,29.65,NE,42,0.0,7.0,71,0.00,,,0.00,VWS V14.01,2013-03-24 23:19:00,
2013-03-24 19:24:00,35.6,27.1,29.65,NNE,20,1.0,7.0,71,0.00,,,0.00,VWS V14.01,2013-03-24 23:24:00,
2013-03-24 19:29:00,35.5,27.0,29.65,NE,56,4.0,7.0,71,0.00,,,0.00,VWS V14.01,2013-03-24 23:29:00,
2013-03-24 19:34:00,35.5,27.4,29.65,ENE,58,4.0,7.0,72,0.00,,,0.00,VWS V14.01,2013-03-24 23:34:00,
2013-03-24 19:39:00,35.5,27.0,29.65,NNE,27,2.0,8.0,71,0.00,,,0.00,VWS V14.01,2013-03-24 23:39:00,
2013-03-24 19:44:00,35.4,27.3,29.65,NNE,27,3.0,8.0,72,0.00,,,0.00,VWS V14.01,2013-03-24 23:44:00,
2013-03-24 19:49:00,35.4,27.3,29.65,NNE,28,2.0,8.0,72,0.00,,,0.00,VWS V14.01,2013-03-24 23:49:00,
2013-03-24 19:54:00,35.3,27.5,29.65,NE,36,4.0,8.0,73,0.00,,,0.00,VWS V14.01,2013-03-24 23:54:00,
2013-03-24 19:59:00,35.2,27.4,29.65,NE,35,4.0,9.0,73,0.00,,,0.00,VWS V14.01,2013-03-24 23:59:00,
2013-03-24 20:04:00,35.1,27.3,29.65,North,360,3.0,9.0,73,0.00,,,0.00,VWS V14.01,2013-03-25 00:04:00,
2013-03-24 20:09:00,35.1,27.3,29.65,North,5,4.0,9.0,73,0.00,,,0.00,VWS V14.01,2013-03-25 00:09:00,
2013-03-24 20:14:00,35.0,27.2,29.65,NNE,16,2.0,9.0,73,0.00,,,0.00,VWS V14.01,2013-03-25 00:14:00,
2013-03-24 20:19:00,34.9,27.5,29.65,NNE,17,3.0,9.0,74,0.00,,,0.00,VWS V14.01,2013-03-25 00:19:00,
2013-03-24 20:24:00,34.8,27.0,29.65,NE,51,2.0,9.0,73,0.00,,,0.00,VWS V14.01,2013-03-25 00:24:00,
2013-03-24 20:29:00,34.7,27.0,29.65,NNE,33,2.0,9.0,73,0.00,,,0.00,VWS V14.01,2013-03-25 00:29:00,
2013-03-24 20:34:00,34.6,26.5,29.65,NE,36,4.0,9.0,72,0.00,,,0.00,VWS V14.01,2013-03-25 00:34:00,
2013-03-24 20:39:00,34.6,26.5,29.65,NNE,26,0.0,9.0,72,0.00,,,0.00,VWS V14.01,2013-03-25 00:39:00,
2013-03-24 20:44:00,34.5,26.4,29.65,North,355,2.0,6.0,72,0.00,,,0.00,VWS V14.01,2013-03-25 00:44:00,
2013-03-24 20:49:00,34.5,26.4,29.65,ENE,67,2.0,6.0,72,0.00,,,0.00,VWS V14.01,2013-03-25 00:49:00,
2013-03-24 20:54:00,34.5,26.4,29.65,NNE,13,1.0,6.0,72,0.00,,,0.00,VWS V14.01,2013-03-25 00:54:00,
2013-03-24 20:59:00,34.5,26.4,29.65,NE,41,3.0,7.0,72,0.00,,,0.00,VWS V14.01,2013-03-25 00:59:00,
2013-03-24 21:04:00,34.5,26.8,29.65,NNE,15,3.0,7.0,73,0.00,,,0.00,VWS V14.01,2013-03-25 01:04:00,
2013-03-24 21:09:00,34.5,26.8,29.65,ENE,73,7.0,7.0,73,0.00,,,0.00,VWS V14.01,2013-03-25 01:09:00,
2013-03-24 21:14:00,34.4,27.0,29.65,NE,40,2.0,7.0,74,0.00,,,0.00,VWS V14.01,2013-03-25 01:14:00,
2013-03-24 21:19:00,34.4,27.0,29.66,NNE,18,3.0,7.0,74,0.00,,,0.00,VWS V14.01,2013-03-25 01:19:00,
2013-03-24 21:24:00,34.3,26.9,29.66,NNE,13,5.0,7.0,74,0.00,,,0.00,VWS V14.01,2013-03-25 01:24:00,
2013-03-24 21:29:00,34.1,26.4,29.66,North,355,5.0,8.0,73,0.00,,,0.00,VWS V14.01,2013-03-25 01:29:00,
2013-03-24 21:34:00,34.1,26.4,29.66,NNE,22,4.0,8.0,73,0.00,,,0.00,VWS V14.01,2013-03-25 01:34:00,
2013-03-24 21:39:00,33.9,26.2,29.67,NNE,19,2.0,8.0,73,0.00,,,0.00,VWS V14.01,2013-03-25 01:39:00,
2013-03-24 21:44:00,33.8,26.1,29.67,NE,52,1.0,8.0,73,0.00,,,0.00,VWS V14.01,2013-03-25 01:44:00,
2013-03-24 21:49:00,33.7,26.3,29.67,NE,53,2.0,4.0,74,0.00,,,0.00,VWS V14.01,2013-03-25 01:49:00,
2013-03-24 21:54:00,33.6,25.9,29.67,NE,38,5.0,6.0,73,0.00,,,0.00,VWS V14.01,2013-03-25 01:54:00,
2013-03-24 21:59:00,33.5,25.8,29.68,NNE,18,0.0,7.0,73,0.00,,,0.00,VWS V14.01,2013-03-25 01:59:00,
2013-03-24 22:04:00,33.4,25.7,29.68,NE,41,7.0,8.0,73,0.00,,,0.00,VWS V14.01,2013-03-25 02:04:00,
2013-03-24 22:09:00,33.3,25.6,29.68,NNE,32,3.0,8.0,73,0.00,,,0.00,VWS V14.01,2013-03-25 02:09:00,
2013-03-24 22:14:00,33.3,25.6,29.68,NE,34,0.0,8.0,73,0.00,,,0.00,VWS V14.01,2013-03-25 02:14:00,
2013-03-24 22:19:00,33.2,25.5,29.68,NNE,24,3.0,6.0,73,0.00,,,0.00,VWS V14.01,2013-03-25 02:19:00,
2013-03-24 22:24:00,33.2,25.5,29.67,NNE,12,3.0,6.0,73,0.00,,,0.00,VWS V14.01,2013-03-25 02:24:00,
2013-03-24 22:29:00,33.1,25.4,29.67,NNE,19,2.0,6.0,73,0.00,,,0.00,VWS V14.01,2013-03-25 02:29:00,
2013-03-24 22:34:00,33.0,25.3,29.67,NE,51,1.0,9.0,73,0.00,,,0.00,VWS V14.01,2013-03-25 02:34:00,
2013-03-24 22:39:00,32.9,25.5,29.67,NNE,32,3.0,9.0,74,0.00,,,0.00,VWS V14.01,2013-03-25 02:39:00,
2013-03-24 22:44:00,32.9,25.5,29.67,NE,38,3.0,9.0,74,0.00,,,0.00,VWS V14.01,2013-03-25 02:44:00,
2013-03-24 22:49:00,32.8,25.1,29.67,NE,49,4.0,7.0,73,0.00,,,0.00,VWS V14.01,2013-03-25 02:49:00,
2013-03-24 22:54:00,32.7,25.3,29.67,NNE,28,3.0,8.0,74,0.00,,,0.00,VWS V14.01,2013-03-25 02:54:00,
2013-03-24 22:59:00,32.6,25.2,29.67,NNE,31,4.0,8.0,74,0.00,,,0.00,VWS V14.01,2013-03-25 02:59:00,
2013-03-24 23:04:00,32.5,25.5,29.67,NNE,28,4.0,7.0,75,0.00,,,0.00,VWS V14.01,2013-03-25 03:04:00,
2013-03-24 23:09:00,32.4,25.4,29.67,NNE,22,4.0,9.0,75,0.00,,,0.00,VWS V14.01,2013-03-25 03:09:00,
2013-03-24 23:14:00,32.3,25.3,29.66,NNE,22,3.0,9.0,75,0.00,,,0.00,VWS V14.01,2013-03-25 03:14:00,
2013-03-24 23:19:00,32.3,25.6,29.66,NE,43,4.0,9.0,76,0.00,,,0.00,VWS V14.01,2013-03-25 03:19:00,
2013-03-24 23:32:00,32.1,25.4,29.65,North,0,2.0,5.0,76,0.00,,,0.00,VWS V14.01,2013-03-25 03:32:00,
2013-03-24 23:37:00,32.0,25.3,29.65,NE,34,1.0,12.0,76,0.00,,,0.00,VWS V14.01,2013-03-25 03:37:00,
2013-03-24 23:42:00,32.0,25.6,29.65,NE,34,4.0,12.0,77,0.00,,,0.00,VWS V14.01,2013-03-25 03:42:00,
2013-03-24 23:47:00,32.0,25.6,29.65,NE,34,3.0,8.0,77,0.00,,,0.00,VWS V14.01,2013-03-25 03:47:00,
2013-03-24 23:52:00,31.9,25.5,29.65,NNE,20,3.0,8.0,77,0.00,,,0.00,VWS V14.01,2013-03-25 03:52:00,
2013-03-24 23:57:00,31.8,25.4,29.65,NE,46,2.0,7.0,77,0.00,,,0.00,VWS V14.01,2013-03-25 03:57:00,